createdAt,value
2017-11-06T00:00:32.898Z,7.99
2017-11-06T00:01:45.195Z,8.05
2017-11-06T00:02:57.790Z,8.03
2017-11-06T00:04:10.386Z,7.99
2017-11-06T00:05:22.681Z,8.01
2017-11-06T00:06:34.635Z,7.99
2017-11-06T00:07:46.921Z,8.02
2017-11-06T00:08:59.501Z,7.99
2017-11-06T00:10:11.171Z,8.05
2017-11-06T00:11:23.796Z,7.98
2017-11-06T00:12:36.408Z,7.96
2017-11-06T00:13:48.708Z,7.95
2017-11-06T00:15:01.000Z,7.96
2017-11-06T00:16:13.625Z,7.93
2017-11-06T00:17:26.241Z,8.02
2017-11-06T00:18:38.820Z,7.95
2017-11-06T00:19:51.415Z,7.93
2017-11-06T00:21:03.706Z,7.96
2017-11-06T00:22:16.028Z,7.98
2017-11-06T00:23:28.298Z,7.95
2017-11-06T00:24:39.944Z,7.95
2017-11-06T00:25:52.567Z,7.88
2017-11-06T00:27:04.854Z,7.84
2017-11-06T00:28:17.464Z,7.95
2017-11-06T00:29:29.761Z,7.99
2017-11-06T00:30:42.373Z,7.93
2017-11-06T00:31:54.994Z,7.91
2017-11-06T00:33:07.614Z,7.88
2017-11-06T00:34:20.443Z,7.83
2017-11-06T00:35:32.758Z,7.9
2017-11-06T00:36:45.375Z,7.84
2017-11-06T00:37:57.680Z,7.87
2017-11-06T00:39:10.301Z,7.8
2017-11-06T00:40:22.835Z,7.84
2017-11-06T00:41:35.484Z,7.85
2017-11-06T00:42:48.104Z,7.81
2017-11-06T00:44:00.358Z,7.77
2017-11-06T00:45:12.298Z,7.78
2017-11-06T00:46:24.899Z,7.78
2017-11-06T00:47:37.186Z,7.8
2017-11-06T00:48:49.792Z,7.74
2017-11-06T00:50:01.447Z,7.69
2017-11-06T00:51:13.732Z,7.69
2017-11-06T00:52:26.349Z,7.7
2017-11-06T00:53:38.992Z,7.67
2017-11-06T00:54:51.591Z,7.72
2017-11-06T00:56:04.210Z,7.74
2017-11-06T00:57:16.830Z,7.67
2017-11-06T00:58:29.447Z,7.66
2017-11-06T00:59:41.718Z,7.66
2017-11-06T01:00:54.004Z,7.69
2017-11-06T01:02:06.287Z,7.66
2017-11-06T01:03:18.900Z,7.66
2017-11-06T01:04:31.200Z,7.61
2017-11-06T01:05:43.826Z,7.56
2017-11-06T01:06:56.690Z,7.64
2017-11-06T01:08:08.637Z,7.61
2017-11-06T01:09:20.930Z,7.67
2017-11-06T01:10:33.228Z,7.66
2017-11-06T01:11:45.821Z,7.67
2017-11-06T01:12:58.463Z,7.69
2017-11-06T01:14:10.748Z,7.67
2017-11-06T01:15:22.720Z,7.5
2017-11-06T01:16:35.335Z,7.56
2017-11-06T01:17:47.970Z,7.55
2017-11-06T01:19:00.625Z,7.56
2017-11-06T01:20:13.244Z,7.5
2017-11-06T01:21:25.865Z,7.53
2017-11-06T01:22:38.131Z,7.51
2017-11-06T01:23:50.754Z,7.53
2017-11-06T01:25:03.351Z,7.48
2017-11-06T01:26:14.672Z,7.44
2017-11-06T01:27:26.921Z,7.44
2017-11-06T01:28:39.192Z,7.4
2017-11-06T01:29:51.491Z,7.44
2017-11-06T01:31:04.125Z,7.46
2017-11-06T01:32:16.077Z,7.37
2017-11-06T01:33:28.675Z,7.46
2017-11-06T01:34:40.949Z,7.43
2017-11-06T01:35:53.546Z,7.46
2017-11-06T01:37:05.500Z,7.4
2017-11-06T01:38:17.758Z,7.46
2017-11-06T01:39:29.770Z,7.36
2017-11-06T01:40:42.398Z,7.4
2017-11-06T01:41:54.669Z,7.41
2017-11-06T01:43:06.654Z,7.43
2017-11-06T01:44:19.266Z,7.37
2017-11-06T01:45:31.853Z,7.37
2017-11-06T01:46:43.843Z,7.44
2017-11-06T01:47:56.150Z,7.4
2017-11-06T01:49:08.145Z,7.48
2017-11-06T01:50:20.435Z,7.48
2017-11-06T01:51:33.051Z,7.37
2017-11-06T01:52:45.330Z,7.36
2017-11-06T01:53:57.294Z,7.31
2017-11-06T01:55:09.244Z,7.37
2017-11-06T01:56:21.845Z,7.4
2017-11-06T01:57:34.163Z,7.41
2017-11-06T01:58:46.774Z,7.31
2017-11-06T01:59:59.070Z,7.44
2017-11-06T02:01:11.964Z,7.39
2017-11-06T02:02:23.932Z,7.32
2017-11-06T02:03:36.212Z,7.26
2017-11-06T02:04:48.507Z,7.28
2017-11-06T02:06:00.811Z,7.28
2017-11-06T02:07:13.099Z,7.31
2017-11-06T02:08:25.387Z,7.31
2017-11-06T02:09:37.990Z,7.28
2017-11-06T02:10:50.561Z,7.28
2017-11-06T02:12:02.510Z,7.21
2017-11-06T02:13:14.509Z,7.25
2017-11-06T02:14:26.143Z,7.25
2017-11-06T02:15:38.773Z,7.28
2017-11-06T02:16:51.389Z,7.26
2017-11-06T02:18:04.015Z,7.23
2017-11-06T02:19:16.284Z,7.23
2017-11-06T02:20:28.592Z,7.22
2017-11-06T02:21:41.199Z,7.29
2017-11-06T02:22:53.800Z,7.23
2017-11-06T02:24:06.416Z,7.28
2017-11-06T02:25:19.012Z,7.25
2017-11-06T02:26:31.628Z,7.25
2017-11-06T02:27:44.233Z,7.19
2017-11-06T02:28:56.869Z,7.14
2017-11-06T02:30:09.146Z,7.23
2017-11-06T02:31:21.441Z,7.19
2017-11-06T02:32:34.055Z,7.13
2017-11-06T02:33:46.058Z,7.11
2017-11-06T02:34:58.703Z,7.26
2017-11-06T02:36:11.299Z,7.11
2017-11-06T02:37:23.890Z,7.21
2017-11-06T02:38:36.193Z,7.23
2017-11-06T02:39:48.485Z,7.26
2017-11-06T02:41:01.106Z,7.23
2017-11-06T02:42:13.765Z,7.26
2017-11-06T02:43:26.370Z,7.19
2017-11-06T02:44:38.992Z,7.22
2017-11-06T02:45:50.956Z,7.19
2017-11-06T02:47:03.581Z,7.18
2017-11-06T02:48:15.852Z,7.13
2017-11-06T02:49:28.466Z,7.19
2017-11-06T02:50:41.094Z,7.13
2017-11-06T02:51:53.690Z,7.11
2017-11-06T02:53:05.657Z,7.1
2017-11-06T02:54:17.308Z,7.19
2017-11-06T02:55:29.917Z,7.07
2017-11-06T02:56:42.213Z,7.04
2017-11-06T02:57:54.796Z,7.08
2017-11-06T02:59:07.429Z,7.15
2017-11-06T03:00:19.728Z,7.11
2017-11-06T03:01:32.337Z,7.13
2017-11-06T03:02:44.929Z,7.11
2017-11-06T03:03:57.548Z,7.19
2017-11-06T03:05:10.156Z,7.07
2017-11-06T03:06:21.815Z,7.21
2017-11-06T03:07:34.432Z,7.18
2017-11-06T03:08:46.701Z,7.04
2017-11-06T03:09:59.018Z,7.14
2017-11-06T03:11:11.645Z,7.1
2017-11-06T03:12:23.931Z,7.11
2017-11-06T03:13:35.885Z,7.15
2017-11-06T03:14:48.509Z,7.1
2017-11-06T03:16:01.100Z,7.13
2017-11-06T03:17:13.717Z,7.1
2017-11-06T03:18:26.009Z,7.15
2017-11-06T03:19:38.604Z,7.11
2017-11-06T03:20:51.217Z,7.1
2017-11-06T03:22:03.833Z,7.11
2017-11-06T03:23:15.803Z,7.11
2017-11-06T03:24:28.439Z,7.1
2017-11-06T03:25:41.042Z,7.14
2017-11-06T03:26:53.321Z,7.1
2017-11-06T03:28:05.611Z,7.07
2017-11-06T03:29:18.204Z,7.11
2017-11-06T03:30:30.802Z,7.07
2017-11-06T03:31:42.450Z,7.07
2017-11-06T03:32:54.758Z,7.1
2017-11-06T03:34:07.036Z,7.14
2017-11-06T03:35:19.030Z,7.1
2017-11-06T03:36:31.673Z,7.1
2017-11-06T03:37:44.281Z,7.13
2017-11-06T03:38:56.868Z,7.07
2017-11-06T03:40:09.480Z,7.11
2017-11-06T03:41:22.076Z,7.13
2017-11-06T03:42:34.655Z,7.07
2017-11-06T03:43:46.946Z,7.13
2017-11-06T03:44:59.555Z,7.05
2017-11-06T03:46:12.177Z,7.18
2017-11-06T03:47:24.791Z,7.07
2017-11-06T03:48:36.758Z,7.1
2017-11-06T03:49:49.647Z,7.13
2017-11-06T03:51:02.255Z,7.11
2017-11-06T03:52:14.239Z,7.1
2017-11-06T03:53:26.515Z,7.15
2017-11-06T03:54:38.823Z,7.07
2017-11-06T03:55:51.449Z,7.1
2017-11-06T03:57:03.726Z,7.05
2017-11-06T03:58:16.327Z,7.1
2017-11-06T03:59:28.950Z,7.04
2017-11-06T04:00:41.856Z,7.1
2017-11-06T04:01:54.441Z,7.07
2017-11-06T04:03:07.056Z,7.04
2017-11-06T04:04:19.676Z,7.04
2017-11-06T04:05:32.315Z,7.03
2017-11-06T04:06:44.892Z,6.97
2017-11-06T04:07:57.162Z,7.04
2017-11-06T04:09:09.141Z,7.01
2017-11-06T04:10:21.451Z,7.01
2017-11-06T04:11:34.070Z,7
2017-11-06T04:12:46.650Z,7.01
2017-11-06T04:13:58.615Z,6.97
2017-11-06T04:15:11.211Z,7.04
2017-11-06T04:16:22.882Z,7.01
2017-11-06T04:17:35.181Z,6.96
2017-11-06T04:18:47.755Z,6.89
2017-11-06T04:20:00.369Z,7
2017-11-06T04:21:12.965Z,6.93
2017-11-06T04:22:24.953Z,6.95
2017-11-06T04:23:37.542Z,6.93
2017-11-06T04:24:50.147Z,6.96
2017-11-06T04:26:02.781Z,6.93
2017-11-06T04:27:15.411Z,7
2017-11-06T04:28:27.688Z,6.95
2017-11-06T04:29:40.262Z,6.95
2017-11-06T04:30:52.872Z,6.93
2017-11-06T04:32:05.126Z,6.89
2017-11-06T04:33:17.794Z,6.97
2017-11-06T04:34:30.391Z,6.92
2017-11-06T04:35:42.691Z,6.93
2017-11-06T04:36:54.989Z,6.96
2017-11-06T04:38:07.305Z,6.89
2017-11-06T04:39:19.592Z,6.93
2017-11-06T04:40:31.874Z,6.92
2017-11-06T04:41:44.484Z,6.83
2017-11-06T04:42:57.090Z,6.8
2017-11-06T04:44:09.686Z,6.83
2017-11-06T04:45:21.975Z,6.87
2017-11-06T04:46:34.277Z,6.87
2017-11-06T04:47:46.888Z,6.83
2017-11-06T04:48:59.493Z,6.86
2017-11-06T04:50:11.790Z,6.86
2017-11-06T04:51:23.760Z,6.83
2017-11-06T04:52:35.730Z,6.85
2017-11-06T04:53:48.322Z,6.77
2017-11-06T04:55:00.641Z,6.82
2017-11-06T04:56:13.237Z,6.74
2017-11-06T04:57:25.534Z,6.74
2017-11-06T04:58:37.828Z,6.77
2017-11-06T04:59:50.446Z,6.78
2017-11-06T05:01:02.724Z,6.77
2017-11-06T05:02:15.017Z,6.82
2017-11-06T05:03:27.604Z,6.65
2017-11-06T05:04:39.875Z,6.71
2017-11-06T05:05:52.727Z,6.68
2017-11-06T05:07:05.369Z,6.71
2017-11-06T05:08:17.700Z,6.71
2017-11-06T05:09:30.313Z,6.65
2017-11-06T05:10:42.610Z,6.68
2017-11-06T05:11:54.884Z,6.57
2017-11-06T05:13:07.483Z,6.64
2017-11-06T05:14:19.778Z,6.6
2017-11-06T05:15:32.397Z,6.59
2017-11-06T05:16:45.041Z,6.57
2017-11-06T05:17:57.315Z,6.56
2017-11-06T05:19:09.584Z,6.52
2017-11-06T05:20:21.579Z,6.47
2017-11-06T05:21:34.196Z,6.47
2017-11-06T05:22:46.520Z,6.54
2017-11-06T05:23:58.809Z,6.52
2017-11-06T05:25:11.409Z,6.47
2017-11-06T05:26:24.010Z,6.47
2017-11-06T05:27:36.856Z,6.49
2017-11-06T05:28:49.489Z,6.49
2017-11-06T05:30:02.120Z,6.47
2017-11-06T05:31:14.411Z,6.44
2017-11-06T05:32:27.039Z,6.39
2017-11-06T05:33:39.331Z,6.43
2017-11-06T05:34:51.970Z,6.36
2017-11-06T05:36:04.597Z,6.43
2017-11-06T05:37:16.889Z,6.28
2017-11-06T05:38:29.410Z,6.31
2017-11-06T05:39:42.038Z,6.31
2017-11-06T05:40:54.348Z,6.25
2017-11-06T05:42:06.956Z,6.19
2017-11-06T05:43:19.243Z,6.25
2017-11-06T05:44:31.184Z,6.28
2017-11-06T05:45:43.469Z,6.28
2017-11-06T05:46:55.800Z,6.26
2017-11-06T05:48:07.793Z,6.22
2017-11-06T05:49:20.074Z,6.28
2017-11-06T05:50:32.643Z,6.22
2017-11-06T05:51:44.941Z,6.2
2017-11-06T05:52:57.208Z,6.22
2017-11-06T05:54:09.829Z,6.16
2017-11-06T05:55:22.109Z,6.15
2017-11-06T05:56:34.737Z,6.26
2017-11-06T05:57:47.403Z,6.15
2017-11-06T05:58:59.688Z,6.12
2017-11-06T06:00:12.313Z,6.13
2017-11-06T06:01:24.932Z,6.13
2017-11-06T06:02:37.243Z,6.22
2017-11-06T06:03:49.873Z,6.09
2017-11-06T06:05:02.144Z,6.01
2017-11-06T06:06:14.428Z,6.05
2017-11-06T06:07:26.384Z,6.02
2017-11-06T06:08:38.972Z,6.02
2017-11-06T06:09:51.619Z,6.07
2017-11-06T06:11:03.868Z,5.92
2017-11-06T06:12:16.159Z,5.91
2017-11-06T06:13:28.761Z,5.94
2017-11-06T06:14:41.051Z,5.84
2017-11-06T06:15:53.655Z,5.91
2017-11-06T06:17:06.267Z,5.87
2017-11-06T06:18:18.566Z,5.8
2017-11-06T06:19:30.866Z,5.8
2017-11-06T06:20:43.134Z,5.77
2017-11-06T06:21:55.432Z,5.77
2017-11-06T06:23:08.045Z,5.74
2017-11-06T06:24:19.716Z,5.73
2017-11-06T06:25:32.339Z,5.72
2017-11-06T06:26:44.955Z,5.58
2017-11-06T06:27:57.584Z,5.65
2017-11-06T06:29:10.202Z,5.64
2017-11-06T06:30:22.493Z,5.56
2017-11-06T06:31:35.140Z,5.54
2017-11-06T06:32:47.722Z,5.59
2017-11-06T06:33:59.662Z,5.55
2017-11-06T06:35:12.277Z,5.46
2017-11-06T06:36:23.921Z,5.51
2017-11-06T06:37:36.555Z,5.59
2017-11-06T06:38:48.195Z,5.56
2017-11-06T06:40:00.791Z,5.55
2017-11-06T06:41:13.414Z,5.61
2017-11-06T06:42:25.679Z,5.61
2017-11-06T06:43:38.204Z,5.59
2017-11-06T06:44:50.838Z,5.56
2017-11-06T06:46:03.120Z,5.65
2017-11-06T06:47:15.416Z,5.64
2017-11-06T06:48:28.026Z,5.7
2017-11-06T06:49:40.285Z,5.65
2017-11-06T06:50:52.587Z,5.64
2017-11-06T06:52:04.220Z,5.61
2017-11-06T06:53:16.811Z,5.7
2017-11-06T06:54:29.468Z,5.72
2017-11-06T06:55:42.084Z,5.74
2017-11-06T06:56:54.355Z,5.76
2017-11-06T06:58:06.656Z,5.72
2017-11-06T06:59:19.261Z,5.73
2017-11-06T07:00:31.532Z,5.76
2017-11-06T07:01:43.490Z,5.79
2017-11-06T07:02:56.105Z,5.79
2017-11-06T07:04:08.705Z,5.79
2017-11-06T07:05:21.564Z,5.83
2017-11-06T07:06:33.863Z,5.8
2017-11-06T07:07:46.113Z,5.81
2017-11-06T07:08:58.725Z,5.87
2017-11-06T07:10:11.013Z,5.81
2017-11-06T07:11:23.628Z,5.9
2017-11-06T07:12:36.239Z,5.84
2017-11-06T07:13:48.538Z,5.87
2017-11-06T07:15:00.820Z,5.79
2017-11-06T07:16:13.461Z,5.94
2017-11-06T07:17:25.752Z,5.87
2017-11-06T07:18:38.356Z,5.87
2017-11-06T07:19:50.621Z,5.87
2017-11-06T07:21:03.194Z,5.92
2017-11-06T07:22:15.485Z,5.91
2017-11-06T07:23:27.449Z,5.94
2017-11-06T07:24:39.755Z,5.95
2017-11-06T07:25:52.331Z,5.88
2017-11-06T07:27:04.872Z,5.88
2017-11-06T07:28:17.481Z,5.91
2017-11-06T07:29:30.116Z,5.91
2017-11-06T07:30:42.730Z,6.01
2017-11-06T07:31:55.025Z,5.98
2017-11-06T07:33:07.341Z,6.01
2017-11-06T07:34:19.996Z,6.02
2017-11-06T07:35:32.613Z,6.02
2017-11-06T07:36:44.910Z,6.07
2017-11-06T07:37:57.200Z,6.01
2017-11-06T07:39:08.831Z,6.05
2017-11-06T07:40:21.441Z,6.01
2017-11-06T07:41:33.768Z,6.05
2017-11-06T07:42:46.367Z,6.05
2017-11-06T07:43:58.660Z,6.1
2017-11-06T07:45:11.306Z,6.17
2017-11-06T07:46:23.904Z,6.17
2017-11-06T07:47:36.175Z,6.17
2017-11-06T07:48:48.793Z,6.25
2017-11-06T07:50:01.414Z,6.13
2017-11-06T07:51:13.053Z,6.17
2017-11-06T07:52:25.657Z,6.28
2017-11-06T07:53:37.626Z,6.2
2017-11-06T07:54:49.916Z,6.32
2017-11-06T07:56:02.235Z,6.32
2017-11-06T07:57:14.890Z,6.39
2017-11-06T07:58:27.163Z,6.38
2017-11-06T07:59:39.147Z,6.44
2017-11-06T08:00:51.725Z,6.47
2017-11-06T08:02:04.349Z,6.49
2017-11-06T08:03:16.338Z,6.49
2017-11-06T08:04:28.637Z,6.56
2017-11-06T08:05:40.583Z,6.62
2017-11-06T08:06:52.893Z,6.59
2017-11-06T08:08:05.506Z,6.62
2017-11-06T08:09:17.837Z,6.64
2017-11-06T08:10:29.803Z,6.59
2017-11-06T08:11:42.414Z,6.68
2017-11-06T08:12:55.013Z,6.75
2017-11-06T08:14:07.620Z,6.75
2017-11-06T08:15:19.586Z,6.75
2017-11-06T08:16:31.893Z,6.72
2017-11-06T08:17:43.556Z,6.75
2017-11-06T08:18:55.840Z,6.82
2017-11-06T08:20:08.453Z,6.8
2017-11-06T08:21:20.749Z,6.85
2017-11-06T08:22:33.038Z,6.75
2017-11-06T08:23:45.642Z,6.85
2017-11-06T08:24:58.286Z,6.89
2017-11-06T08:26:10.255Z,6.77
2017-11-06T08:27:22.897Z,6.86
2017-11-06T08:28:35.517Z,6.89
2017-11-06T08:29:47.802Z,6.83
2017-11-06T08:30:59.442Z,6.92
2017-11-06T08:32:11.729Z,6.97
2017-11-06T08:33:24.349Z,6.92
2017-11-06T08:34:36.950Z,6.89
2017-11-06T08:35:49.588Z,6.97
2017-11-06T08:37:02.189Z,6.96
2017-11-06T08:38:14.158Z,7
2017-11-06T08:39:26.461Z,7.01
2017-11-06T08:40:39.027Z,7.01
2017-11-06T08:41:51.344Z,6.96
2017-11-06T08:43:03.970Z,7.07
2017-11-06T08:44:16.611Z,7.11
2017-11-06T08:45:28.262Z,7.04
2017-11-06T08:46:40.541Z,7.08
2017-11-06T08:47:53.151Z,7.14
2017-11-06T08:49:05.771Z,7.1
2017-11-06T08:50:17.746Z,7.04
2017-11-06T08:51:30.357Z,7.21
2017-11-06T08:52:42.942Z,7.15
2017-11-06T08:53:55.218Z,7.18
2017-11-06T08:55:07.168Z,7.14
2017-11-06T08:56:19.771Z,7.28
2017-11-06T08:57:32.076Z,7.21
2017-11-06T08:58:44.682Z,7.25
2017-11-06T08:59:56.958Z,7.26
2017-11-06T09:01:08.300Z,7.36
2017-11-06T09:02:20.946Z,7.31
2017-11-06T09:03:33.596Z,7.37
2017-11-06T09:04:46.194Z,7.36
2017-11-06T09:05:58.465Z,7.4
2017-11-06T09:07:10.112Z,7.33
2017-11-06T09:08:22.402Z,7.47
2017-11-06T09:09:34.698Z,7.4
2017-11-06T09:10:47.295Z,7.33
2017-11-06T09:11:59.269Z,7.41
2017-11-06T09:13:11.885Z,7.43
2017-11-06T09:14:24.185Z,7.36
2017-11-06T09:15:36.818Z,7.36
2017-11-06T09:16:49.415Z,7.31
2017-11-06T09:18:01.711Z,7.26
2017-11-06T09:19:13.981Z,7.29
2017-11-06T09:20:26.626Z,7.26
2017-11-06T09:21:38.614Z,7.23
2017-11-06T09:22:51.201Z,7.29
2017-11-06T09:24:03.796Z,7.28
2017-11-06T09:25:16.394Z,7.26
2017-11-06T09:26:28.355Z,7.23
2017-11-06T09:27:40.965Z,7.28
2017-11-06T09:28:53.582Z,7.28
2017-11-06T09:30:05.529Z,7.41
2017-11-06T09:31:17.498Z,7.44
2017-11-06T09:32:30.119Z,7.43
2017-11-06T09:33:42.090Z,7.5
2017-11-06T09:34:54.386Z,7.51
2017-11-06T09:36:06.670Z,7.5
2017-11-06T09:37:19.269Z,7.5
2017-11-06T09:38:31.900Z,7.5
2017-11-06T09:39:44.185Z,7.59
2017-11-06T09:40:56.814Z,7.62
2017-11-06T09:42:09.101Z,7.67
2017-11-06T09:43:21.702Z,7.67
2017-11-06T09:44:33.968Z,7.75
2017-11-06T09:45:46.620Z,7.84
2017-11-06T09:46:58.913Z,7.84
2017-11-06T09:48:11.186Z,7.88
2017-11-06T09:49:23.798Z,7.88
2017-11-06T09:50:35.454Z,7.84
2017-11-06T09:51:47.423Z,7.84
2017-11-06T09:52:59.369Z,7.93
2017-11-06T09:54:11.984Z,8.01
2017-11-06T09:55:24.280Z,7.99
2017-11-06T09:56:36.882Z,7.93
2017-11-06T09:57:49.499Z,7.91
2017-11-06T09:59:02.024Z,7.91
2017-11-06T10:00:14.312Z,7.9
2017-11-06T10:01:26.928Z,7.87
2017-11-06T10:02:39.206Z,7.87
2017-11-06T10:03:51.137Z,7.84
2017-11-06T10:05:03.752Z,7.84
2017-11-06T10:06:16.047Z,7.85
2017-11-06T10:07:28.338Z,7.8
2017-11-06T10:08:40.978Z,7.8
2017-11-06T10:09:53.261Z,7.81
2017-11-06T10:11:05.544Z,7.64
2017-11-06T10:12:17.514Z,7.62
2017-11-06T10:13:30.111Z,7.66
2017-11-06T10:14:42.696Z,7.56
2017-11-06T10:15:55.345Z,7.64
2017-11-06T10:17:07.647Z,7.44
2017-11-06T10:18:20.272Z,7.58
2017-11-06T10:19:32.895Z,7.48
2017-11-06T10:20:45.169Z,7.51
2017-11-06T10:21:57.170Z,7.39
2017-11-06T10:23:09.467Z,7.43
2017-11-06T10:24:22.082Z,7.48
2017-11-06T10:25:34.675Z,7.41
2017-11-06T10:26:46.961Z,7.47
2017-11-06T10:27:59.558Z,7.46
2017-11-06T10:29:11.832Z,7.41
2017-11-06T10:30:24.459Z,7.4
2017-11-06T10:31:36.770Z,7.43
2017-11-06T10:32:49.418Z,7.43
2017-11-06T10:34:02.038Z,7.32
2017-11-06T10:35:14.364Z,7.32
2017-11-06T10:36:26.651Z,7.4
2017-11-06T10:37:38.951Z,7.43
2017-11-06T10:38:51.243Z,7.32
2017-11-06T10:40:03.842Z,7.43
2017-11-06T10:41:16.135Z,7.37
2017-11-06T10:42:28.113Z,7.41
2017-11-06T10:43:40.413Z,7.44
2017-11-06T10:44:52.732Z,7.44
2017-11-06T10:46:05.028Z,7.5
2017-11-06T10:47:17.300Z,7.56
2017-11-06T10:48:29.909Z,7.55
2017-11-06T10:49:42.516Z,7.53
2017-11-06T10:50:54.482Z,7.66
2017-11-06T10:52:06.758Z,7.51
2017-11-06T10:53:19.040Z,7.61
2017-11-06T10:54:31.640Z,7.59
2017-11-06T10:55:44.288Z,7.64
2017-11-06T10:56:56.562Z,7.74
2017-11-06T10:58:08.533Z,7.64
2017-11-06T10:59:21.158Z,7.67
2017-11-06T11:00:33.472Z,7.64
2017-11-06T11:01:45.772Z,7.67
2017-11-06T11:02:57.717Z,7.8
2017-11-06T11:04:10.344Z,7.81
2017-11-06T11:05:22.958Z,7.77
2017-11-06T11:06:35.247Z,7.78
2017-11-06T11:07:47.867Z,7.8
2017-11-06T11:09:00.500Z,7.84
2017-11-06T11:10:12.466Z,7.87
2017-11-06T11:11:24.762Z,7.9
2017-11-06T11:12:37.075Z,7.91
2017-11-06T11:13:49.699Z,7.96
2017-11-06T11:15:02.349Z,7.91
2017-11-06T11:16:14.617Z,7.99
2017-11-06T11:17:26.913Z,7.99
2017-11-06T11:18:39.554Z,8.03
2017-11-06T11:19:51.882Z,8.03
2017-11-06T11:21:04.530Z,8.05
2017-11-06T11:22:16.812Z,8.03
2017-11-06T11:23:29.415Z,8.05
2017-11-06T11:24:41.671Z,8.09
2017-11-06T11:25:53.676Z,8.11
2017-11-06T11:27:05.981Z,8.08
2017-11-06T11:28:18.589Z,8.06
2017-11-06T11:29:30.569Z,8.08
2017-11-06T11:30:43.209Z,8.11
2017-11-06T11:31:55.505Z,8.09
2017-11-06T11:33:08.130Z,8.11
2017-11-06T11:34:20.075Z,8.09
2017-11-06T11:35:32.373Z,8.13
2017-11-06T11:36:44.667Z,8.13
2017-11-06T11:37:57.283Z,8.06
2017-11-06T11:39:09.883Z,8.17
2017-11-06T11:40:22.479Z,8.17
2017-11-06T11:41:34.478Z,8.24
2017-11-06T11:42:46.431Z,8.24
2017-11-06T11:43:59.058Z,8.23
2017-11-06T11:45:11.328Z,8.24
2017-11-06T11:46:23.581Z,8.26
2017-11-06T11:47:35.872Z,8.21
2017-11-06T11:48:48.152Z,8.26
2017-11-06T11:50:00.427Z,8.31
2017-11-06T11:51:13.046Z,8.27
2017-11-06T11:52:25.336Z,8.27
2017-11-06T11:53:37.995Z,8.27
2017-11-06T11:54:50.283Z,8.26
2017-11-06T11:56:02.900Z,8.31
2017-11-06T11:57:14.535Z,8.24
2017-11-06T11:58:27.043Z,8.27
2017-11-06T11:59:39.326Z,8.24
2017-11-06T12:00:51.908Z,8.26
2017-11-06T12:02:03.920Z,8.27
2017-11-06T12:03:16.542Z,8.26
2017-11-06T12:04:28.517Z,8.26
2017-11-06T12:05:41.137Z,8.26
2017-11-06T12:06:53.437Z,8.24
2017-11-06T12:08:05.379Z,8.26
2017-11-06T12:09:17.695Z,8.24
2017-11-06T12:10:29.998Z,8.35
2017-11-06T12:11:42.311Z,8.24
2017-11-06T12:12:54.915Z,8.23
2017-11-06T12:14:07.579Z,8.28
2017-11-06T12:15:19.880Z,8.41
2017-11-06T12:16:32.175Z,8.36
2017-11-06T12:17:44.799Z,8.35
2017-11-06T12:18:57.065Z,8.38
2017-11-06T12:20:09.388Z,8.41
2017-11-06T12:21:21.674Z,8.35
2017-11-06T12:22:33.929Z,8.46
2017-11-06T12:23:46.225Z,8.5
2017-11-06T12:24:58.821Z,8.41
2017-11-06T12:26:11.113Z,8.5
2017-11-06T12:27:23.738Z,8.5
2017-11-06T12:28:36.329Z,8.59
2017-11-06T12:29:48.643Z,8.52
2017-11-06T12:31:00.973Z,8.49
2017-11-06T12:32:13.243Z,8.56
2017-11-06T12:33:25.818Z,8.59
2017-11-06T12:34:38.099Z,8.49
2017-11-06T12:35:50.709Z,8.46
2017-11-06T12:37:02.708Z,8.57
2017-11-06T12:38:15.336Z,8.53
2017-11-06T12:39:27.968Z,8.6
2017-11-06T12:40:40.277Z,8.59
2017-11-06T12:41:52.904Z,8.54
2017-11-06T12:43:04.851Z,8.56
2017-11-06T12:44:17.476Z,8.61
2017-11-06T12:45:30.086Z,8.56
2017-11-06T12:46:42.043Z,8.56
2017-11-06T12:47:54.642Z,8.54
2017-11-06T12:49:07.238Z,8.54
2017-11-06T12:50:19.843Z,8.61
2017-11-06T12:51:32.141Z,8.59
2017-11-06T12:52:44.438Z,8.59
2017-11-06T12:53:56.406Z,8.59
2017-11-06T12:55:09.054Z,8.54
2017-11-06T12:56:21.658Z,8.52
2017-11-06T12:57:34.273Z,8.59
2017-11-06T12:58:46.600Z,8.6
2017-11-06T12:59:59.195Z,8.56
2017-11-06T13:01:11.812Z,8.59
2017-11-06T13:02:24.407Z,8.61
2017-11-06T13:03:36.380Z,8.56
2017-11-06T13:04:48.349Z,8.56
2017-11-06T13:06:00.626Z,8.59
2017-11-06T13:07:12.941Z,8.6
2017-11-06T13:08:25.553Z,8.56
2017-11-06T13:09:37.827Z,8.64
2017-11-06T13:10:50.429Z,8.56
2017-11-06T13:12:02.715Z,8.57
2017-11-06T13:13:15.015Z,8.53
2017-11-06T13:14:27.320Z,8.54
2017-11-06T13:15:39.967Z,8.5
2017-11-06T13:16:51.933Z,8.54
2017-11-06T13:18:04.571Z,8.5
2017-11-06T13:19:16.864Z,8.46
2017-11-06T13:20:29.158Z,8.45
2017-11-06T13:21:41.440Z,8.56
2017-11-06T13:22:54.083Z,8.54
2017-11-06T13:24:06.357Z,8.52
2017-11-06T13:25:18.624Z,8.54
2017-11-06T13:26:30.945Z,8.56
2017-11-06T13:27:43.541Z,8.6
2017-11-06T13:28:55.838Z,8.53
2017-11-06T13:30:07.486Z,8.57
2017-11-06T13:31:19.752Z,8.6
2017-11-06T13:32:32.041Z,8.61
2017-11-06T13:33:43.702Z,8.56
2017-11-06T13:34:55.988Z,8.6
2017-11-06T13:36:08.285Z,8.57
2017-11-06T13:37:20.559Z,8.57
2017-11-06T13:38:32.806Z,8.61
2017-11-06T13:39:45.375Z,8.57
2017-11-06T13:40:56.999Z,8.59
2017-11-06T13:42:09.616Z,8.61
2017-11-06T13:43:21.930Z,8.59
2017-11-06T13:44:34.534Z,8.57
2017-11-06T13:45:47.145Z,8.52
2017-11-06T13:46:59.166Z,8.52
2017-11-06T13:48:11.133Z,8.56
2017-11-06T13:49:23.469Z,8.59
2017-11-06T13:50:35.789Z,8.49
2017-11-06T13:51:48.384Z,8.46
2017-11-06T13:53:01.003Z,8.53
2017-11-06T13:54:13.624Z,8.53
2017-11-06T13:55:25.893Z,8.5
2017-11-06T13:56:38.202Z,8.46
2017-11-06T13:57:50.842Z,8.45
2017-11-06T13:59:03.148Z,8.41
2017-11-06T14:00:15.801Z,8.54
2017-11-06T14:01:28.436Z,8.53
2017-11-06T14:02:40.706Z,8.42
2017-11-06T14:03:53.290Z,8.49
2017-11-06T14:05:05.883Z,8.53
2017-11-06T14:06:18.493Z,8.5
2017-11-06T14:07:30.775Z,8.44
2017-11-06T14:08:43.396Z,8.45
2017-11-06T14:09:56.031Z,8.49
2017-11-06T14:11:08.005Z,8.44
2017-11-06T14:12:19.983Z,8.42
2017-11-06T14:13:32.624Z,8.42
2017-11-06T14:14:45.244Z,8.44
2017-11-06T14:15:57.565Z,8.5
2017-11-06T14:17:10.163Z,8.45
2017-11-06T14:18:22.124Z,8.56
2017-11-06T14:19:34.085Z,8.42
2017-11-06T14:20:46.394Z,8.46
2017-11-06T14:21:59.000Z,8.49
2017-11-06T14:23:11.282Z,8.46
2017-11-06T14:24:23.582Z,8.44
2017-11-06T14:25:35.541Z,8.44
2017-11-06T14:26:48.177Z,8.46
2017-11-06T14:28:00.432Z,8.52
2017-11-06T14:29:12.744Z,8.52
2017-11-06T14:30:25.020Z,8.41
2017-11-06T14:31:37.313Z,8.54
2017-11-06T14:32:49.564Z,8.42
2017-11-06T14:34:01.521Z,8.52
2017-11-06T14:35:13.814Z,8.46
2017-11-06T14:36:26.420Z,8.46
2017-11-06T14:37:38.392Z,8.38
2017-11-06T14:38:51.012Z,8.39
2017-11-06T14:40:02.962Z,8.38
2017-11-06T14:41:15.245Z,8.42
2017-11-06T14:42:27.498Z,8.44
2017-11-06T14:43:40.116Z,8.41
2017-11-06T14:44:52.411Z,8.31
2017-11-06T14:46:04.382Z,8.27
2017-11-06T14:47:17.007Z,8.38
2017-11-06T14:48:29.300Z,8.23
2017-11-06T14:49:41.570Z,8.27
2017-11-06T14:50:53.882Z,8.31
2017-11-06T14:52:06.136Z,8.31
2017-11-06T14:53:18.747Z,8.21
2017-11-06T14:54:31.084Z,8.21
2017-11-06T14:55:43.672Z,8.21
2017-11-06T14:56:55.971Z,8.14
2017-11-06T14:58:08.593Z,8.05
2017-11-06T14:59:21.213Z,8.13
2017-11-06T15:00:33.525Z,8.08
2017-11-06T15:01:46.157Z,8.02
2017-11-06T15:02:58.442Z,8.02
2017-11-06T15:04:11.048Z,8.02
2017-11-06T15:05:23.687Z,7.96
2017-11-06T15:06:35.966Z,7.9
2017-11-06T15:07:48.254Z,7.84
2017-11-06T15:09:00.845Z,7.83
2017-11-06T15:10:13.447Z,7.84
2017-11-06T15:11:25.744Z,7.77
2017-11-06T15:12:38.367Z,7.72
2017-11-06T15:13:50.013Z,7.78
2017-11-06T15:15:02.603Z,7.66
2017-11-06T15:16:14.893Z,7.78
2017-11-06T15:17:27.521Z,7.62
2017-11-06T15:18:39.814Z,7.61
2017-11-06T15:19:52.111Z,7.64
2017-11-06T15:21:04.698Z,7.51
2017-11-06T15:22:17.330Z,7.53
2017-11-06T15:23:29.939Z,7.51
2017-11-06T15:24:42.563Z,7.48
2017-11-06T15:25:54.518Z,7.5
2017-11-06T15:27:07.165Z,7.39
2017-11-06T15:28:19.771Z,7.32
2017-11-06T15:29:32.044Z,7.4
2017-11-06T15:30:44.303Z,7.29
2017-11-06T15:31:55.949Z,7.22
2017-11-06T15:33:08.586Z,7.23
2017-11-06T15:34:20.874Z,7.19
2017-11-06T15:35:33.521Z,7.13
2017-11-06T15:36:46.127Z,7.25
2017-11-06T15:37:58.754Z,7.08
2017-11-06T15:39:11.410Z,7.07
2017-11-06T15:40:23.696Z,7.1
2017-11-06T15:41:36.298Z,7.1
2017-11-06T15:42:48.923Z,7
2017-11-06T15:44:01.554Z,6.9
2017-11-06T15:45:14.174Z,6.93
2017-11-06T15:46:26.782Z,6.86
2017-11-06T15:47:39.064Z,6.87
2017-11-06T15:48:51.684Z,6.78
2017-11-06T15:50:04.302Z,6.78
2017-11-06T15:51:16.922Z,6.75
2017-11-06T15:52:29.245Z,6.7
2017-11-06T15:53:41.537Z,6.7
2017-11-06T15:54:54.139Z,6.65
2017-11-06T15:56:06.450Z,6.64
2017-11-06T15:57:18.728Z,6.6
2017-11-06T15:58:31.016Z,6.54
2017-11-06T15:59:43.648Z,6.53
2017-11-06T16:00:55.911Z,6.5
2017-11-06T16:02:08.211Z,6.49
2017-11-06T16:03:20.825Z,6.39
2017-11-06T16:04:33.424Z,6.26
2017-11-06T16:05:46.047Z,6.31
2017-11-06T16:06:58.660Z,6.28